Terminal Aerodrome Forecast
Issued by NWS

Home | Current Version | Previous Version | Text Only | Print | Product List | Glossary On
Versions: 1 2 3 4 5 6 7 8 9 10 11 12 13 14 15 16 17
759
FTUS44 KSJT 251731
TAFSOA
TAF
KSOA 251731Z 2518/2618 15012KT 5SM -SHRA VCTS OVC012CB
     FM252300 13007KT 5SM -RA BR SCT025 OVC050
     FM260600 13010KT 4SM -RA OVC015=

USA.gov is the U.S. government's official web portal to all federal, state and local government web resources and services.